Time,TemperatureF,DewpointF,PressureIn,WindDirection,WindDirectionDegrees,WindSpeedMPH,WindSpeedGustMPH,Humidity,HourlyPrecipIn,Conditions,Clouds,dailyrainin,SolarRadiationWatts/m^2,SoftwareType,DateUTC
2013-04-09 00:12:00,34.0,25.0,-100.00,East,87,7.0,25.0,70,0.00,,,0.16,0.000000,,2013-04-09 06:12:00,
2013-04-09 00:22:00,34.0,25.0,-100.00,East,87,7.0,25.0,70,0.00,,,0.16,0.000000,,2013-04-09 06:22:00,
2013-04-09 00:32:00,34.0,25.0,-100.00,East,87,7.0,25.0,70,0.00,,,0.16,0.000000,,2013-04-09 06:32:00,
2013-04-09 00:42:00,34.0,25.0,-100.00,East,87,7.0,25.0,70,0.00,,,0.16,0.000000,,2013-04-09 06:42:00,
2013-04-09 01:12:00,36.0,25.0,-100.00,ESE,105,7.0,20.0,65,0.00,,,0.16,0.000000,,2013-04-09 07:12:00,
2013-04-09 01:22:00,36.0,25.0,-100.00,ESE,105,7.0,20.0,65,0.00,,,0.16,0.000000,,2013-04-09 07:22:00,
2013-04-09 01:32:00,36.0,25.0,-100.00,ESE,105,7.0,20.0,65,0.00,,,0.16,0.000000,,2013-04-09 07:32:00,
2013-04-09 01:42:00,36.0,25.0,-100.00,ESE,105,7.0,20.0,65,0.00,,,0.16,0.000000,,2013-04-09 07:42:00,
2013-04-09 02:12:00,37.0,27.0,-100.00,SE,124,4.0,17.0,67,0.00,,,0.16,0.000000,,2013-04-09 08:12:00,
2013-04-09 02:22:00,37.0,27.0,-100.00,SE,124,4.0,17.0,67,0.00,,,0.16,0.000000,,2013-04-09 08:22:00,
2013-04-09 02:32:00,37.0,27.0,-100.00,SE,124,4.0,17.0,67,0.00,,,0.16,0.000000,,2013-04-09 08:32:00,
2013-04-09 02:42:00,37.0,27.0,-100.00,SE,124,4.0,17.0,67,0.00,,,0.16,0.000000,,2013-04-09 08:42:00,
2013-04-09 03:12:00,36.0,27.0,-100.00,SSE,168,7.0,11.0,69,0.00,,,0.16,0.000000,,2013-04-09 09:12:00,
2013-04-09 03:22:00,36.0,27.0,-100.00,SSE,168,7.0,11.0,69,0.00,,,0.16,0.000000,,2013-04-09 09:22:00,
2013-04-09 03:32:00,36.0,27.0,-100.00,SSE,168,7.0,11.0,69,0.00,,,0.16,0.000000,,2013-04-09 09:32:00,
2013-04-09 03:43:00,36.0,27.0,-100.00,SSE,168,7.0,11.0,69,0.00,,,0.16,0.000000,,2013-04-09 09:43:00,
2013-04-09 04:12:00,34.0,25.0,-100.00,South,188,4.0,18.0,70,0.00,,,-99.99,0.000000,,2013-04-09 10:12:00,
2013-04-09 04:23:00,34.0,25.0,-100.00,South,188,4.0,18.0,70,0.00,,,-99.99,0.000000,,2013-04-09 10:23:00,
2013-04-09 04:32:00,34.0,25.0,-100.00,South,188,4.0,18.0,70,0.00,,,-99.99,0.000000,,2013-04-09 10:32:00,
2013-04-09 04:42:00,34.0,25.0,-100.00,South,188,4.0,18.0,70,0.00,,,-99.99,0.000000,,2013-04-09 10:42:00,
2013-04-09 05:12:00,34.0,26.0,-100.00,SSW,195,5.0,8.0,71,0.00,,,0.16,0.000000,,2013-04-09 11:12:00,
2013-04-09 05:22:00,34.0,26.0,-100.00,SSW,195,5.0,8.0,71,0.00,,,0.16,0.000000,,2013-04-09 11:22:00,
2013-04-09 05:32:00,34.0,26.0,-100.00,SSW,195,5.0,8.0,71,0.00,,,0.16,0.000000,,2013-04-09 11:32:00,
2013-04-09 05:42:00,34.0,26.0,-100.00,SSW,195,5.0,8.0,71,0.00,,,0.16,0.000000,,2013-04-09 11:42:00,
2013-04-09 06:12:00,32.0,25.0,-100.00,WSW,246,4.0,7.0,76,0.00,,,0.16,0.000000,,2013-04-09 12:12:00,
2013-04-09 06:22:00,32.0,25.0,-100.00,WSW,246,4.0,7.0,76,0.00,,,0.16,0.000000,,2013-04-09 12:22:00,
2013-04-09 06:32:00,32.0,25.0,-100.00,WSW,246,4.0,7.0,76,0.00,,,0.16,0.000000,,2013-04-09 12:32:00,
2013-04-09 06:42:00,32.0,25.0,-100.00,WSW,246,4.0,7.0,76,0.00,,,0.16,0.000000,,2013-04-09 12:42:00,
2013-04-09 07:12:00,30.0,26.0,-100.00,South,171,3.0,6.0,86,0.00,,,0.16,0.000000,,2013-04-09 13:12:00,
2013-04-09 07:22:00,30.0,26.0,-100.00,South,171,3.0,6.0,86,0.00,,,0.16,0.000000,,2013-04-09 13:22:00,
2013-04-09 07:32:00,30.0,26.0,-100.00,South,171,3.0,6.0,86,0.00,,,0.16,0.000000,,2013-04-09 13:32:00,
2013-04-09 07:42:00,30.0,26.0,-100.00,South,171,3.0,6.0,86,0.00,,,0.16,0.000000,,2013-04-09 13:42:00,
2013-04-09 08:12:00,31.0,28.0,-100.00,SW,214,2.0,4.0,90,0.00,,,0.16,37.000000,,2013-04-09 14:12:00,
2013-04-09 08:22:00,31.0,28.0,-100.00,SW,214,2.0,4.0,90,0.00,,,0.16,37.000000,,2013-04-09 14:22:00,
2013-04-09 08:32:00,31.0,28.0,-100.00,SW,214,2.0,4.0,90,0.00,,,0.16,37.000000,,2013-04-09 14:32:00,
2013-04-09 08:42:00,31.0,28.0,-100.00,SW,214,2.0,4.0,90,0.00,,,0.16,37.000000,,2013-04-09 14:42:00,
2013-04-09 09:12:00,33.0,31.0,-100.00,NNW,334,6.0,14.0,92,0.00,,,0.16,70.000000,,2013-04-09 15:12:00,
2013-04-09 09:22:00,33.0,31.0,-100.00,NNW,334,6.0,14.0,92,0.00,,,0.16,70.000000,,2013-04-09 15:22:00,
2013-04-09 09:33:00,33.0,31.0,-100.00,NNW,334,6.0,14.0,92,0.00,,,0.16,70.000000,,2013-04-09 15:33:00,
2013-04-09 09:42:00,33.0,31.0,-100.00,NNW,334,6.0,14.0,92,0.00,,,0.16,70.000000,,2013-04-09 15:42:00,
2013-04-09 10:13:00,28.0,25.0,-100.00,NW,305,5.0,15.0,89,0.00,,,0.16,89.000000,,2013-04-09 16:13:00,
2013-04-09 10:23:00,28.0,25.0,-100.00,NW,305,5.0,15.0,89,0.00,,,0.16,89.000000,,2013-04-09 16:23:00,
2013-04-09 10:33:00,28.0,25.0,-100.00,NW,305,5.0,15.0,89,0.00,,,0.16,89.000000,,2013-04-09 16:33:00,
2013-04-09 10:42:00,28.0,25.0,-100.00,NW,305,5.0,15.0,89,0.00,,,0.16,89.000000,,2013-04-09 16:42:00,
2013-04-09 11:23:00,30.0,26.0,-100.00,North,357,6.0,11.0,85,0.00,,,0.16,140.000000,,2013-04-09 17:23:00,
2013-04-09 11:32:00,30.0,26.0,-100.00,North,357,6.0,11.0,85,0.00,,,0.16,140.000000,,2013-04-09 17:32:00,
2013-04-09 11:42:00,30.0,26.0,-100.00,North,357,6.0,11.0,85,0.00,,,0.16,140.000000,,2013-04-09 17:42:00,
2013-04-09 12:12:00,29.0,18.0,-100.00,NNE,27,8.0,14.0,63,0.00,,,0.16,237.000000,,2013-04-09 18:12:00,
2013-04-09 12:22:00,29.0,18.0,-100.00,NNE,27,8.0,14.0,63,0.00,,,0.16,237.000000,,2013-04-09 18:22:00,
2013-04-09 12:32:00,29.0,18.0,-100.00,NNE,27,8.0,14.0,63,0.00,,,0.16,237.000000,,2013-04-09 18:32:00,
2013-04-09 12:42:00,29.0,18.0,-100.00,NNE,27,8.0,14.0,63,0.00,,,0.16,237.000000,,2013-04-09 18:42:00,
2013-04-09 13:32:00,30.0,18.0,-100.00,North,353,10.0,16.0,61,0.00,,,0.16,317.000000,,2013-04-09 19:32:00,
2013-04-09 13:41:00,30.0,18.0,-100.00,North,353,10.0,16.0,61,0.00,,,0.16,317.000000,,2013-04-09 19:41:00,
2013-04-09 14:12:00,29.0,17.0,-100.00,North,353,11.0,18.0,60,0.00,,,0.13,398.000000,,2013-04-09 20:12:00,
2013-04-09 14:22:00,29.0,17.0,-100.00,North,353,11.0,18.0,60,0.00,,,0.13,398.000000,,2013-04-09 20:22:00,
2013-04-09 14:33:00,29.0,17.0,-100.00,North,353,11.0,18.0,60,0.00,,,0.13,398.000000,,2013-04-09 20:33:00,
2013-04-09 14:42:00,29.0,17.0,-100.00,North,353,11.0,18.0,60,0.00,,,0.13,398.000000,,2013-04-09 20:42:00,
2013-04-09 15:13:00,29.0,16.0,-100.00,North,358,11.0,20.0,59,0.00,,,0.13,493.000000,,2013-04-09 21:13:00,
2013-04-09 15:22:00,29.0,16.0,-100.00,North,358,11.0,20.0,59,0.00,,,0.13,493.000000,,2013-04-09 21:22:00,
2013-04-09 15:33:00,29.0,16.0,-100.00,North,358,11.0,20.0,59,0.00,,,0.13,493.000000,,2013-04-09 21:33:00,
2013-04-09 15:42:00,29.0,16.0,-100.00,North,358,11.0,20.0,59,0.00,,,0.13,493.000000,,2013-04-09 21:42:00,
2013-04-09 16:12:00,28.0,14.0,-100.00,NNE,14,12.0,22.0,54,0.00,,,0.10,397.000000,,2013-04-09 22:12:00,
2013-04-09 16:23:00,28.0,14.0,-100.00,NNE,14,12.0,22.0,54,0.00,,,0.10,397.000000,,2013-04-09 22:23:00,
2013-04-09 16:33:00,28.0,14.0,-100.00,NNE,14,12.0,22.0,54,0.00,,,0.10,397.000000,,2013-04-09 22:33:00,
2013-04-09 16:42:00,28.0,14.0,-100.00,NNE,14,12.0,22.0,54,0.00,,,0.10,397.000000,,2013-04-09 22:42:00,
2013-04-09 17:12:00,27.0,13.0,-100.00,NNE,27,10.0,21.0,56,0.00,,,0.04,396.000000,,2013-04-09 23:12:00,
2013-04-09 17:22:00,27.0,13.0,-100.00,NNE,27,10.0,21.0,56,0.00,,,0.04,396.000000,,2013-04-09 23:22:00,
2013-04-09 17:32:00,27.0,13.0,-100.00,NNE,27,10.0,21.0,56,0.00,,,0.04,396.000000,,2013-04-09 23:32:00,
2013-04-09 17:42:00,27.0,13.0,-100.00,NNE,27,10.0,21.0,56,0.00,,,0.04,396.000000,,2013-04-09 23:42:00,
2013-04-09 18:22:00,25.0,14.0,-100.00,NNE,24,9.0,19.0,62,0.00,,,0.02,345.000000,,2013-04-10 00:22:00,
2013-04-09 18:32:00,25.0,14.0,-100.00,NNE,24,9.0,19.0,62,0.00,,,0.02,345.000000,,2013-04-10 00:32:00,
2013-04-09 18:42:00,25.0,14.0,-100.00,NNE,24,9.0,19.0,62,0.00,,,0.02,345.000000,,2013-04-10 00:42:00,
2013-04-09 19:12:00,23.0,9.0,-100.00,North,5,11.0,18.0,55,0.00,,,0.02,188.000000,,2013-04-10 01:12:00,
2013-04-09 19:22:00,23.0,9.0,-100.00,North,5,11.0,18.0,55,0.00,,,0.02,188.000000,,2013-04-10 01:22:00,
2013-04-09 19:32:00,23.0,9.0,-100.00,North,5,11.0,18.0,55,0.00,,,0.02,188.000000,,2013-04-10 01:32:00,
2013-04-09 19:42:00,23.0,9.0,-100.00,North,5,11.0,18.0,55,0.00,,,0.02,188.000000,,2013-04-10 01:42:00,
2013-04-09 20:12:00,19.0,12.0,-100.00,NNE,23,7.0,18.0,74,0.00,,,0.01,28.000000,,2013-04-10 02:12:00,
2013-04-09 20:22:00,19.0,12.0,-100.00,NNE,23,7.0,18.0,74,0.00,,,0.01,28.000000,,2013-04-10 02:22:00,
2013-04-09 20:32:00,19.0,12.0,-100.00,NNE,23,7.0,18.0,74,0.00,,,0.01,28.000000,,2013-04-10 02:32:00,
2013-04-09 20:42:00,19.0,12.0,-100.00,NNE,23,7.0,18.0,74,0.00,,,0.01,28.000000,,2013-04-10 02:42:00,
2013-04-09 21:12:00,17.0,14.0,-100.00,North,0,4.0,11.0,86,0.00,,,0.00,0.000000,,2013-04-10 03:12:00,
2013-04-09 21:22:00,17.0,14.0,-100.00,North,0,4.0,11.0,86,0.00,,,0.00,0.000000,,2013-04-10 03:22:00,
2013-04-09 21:32:00,17.0,14.0,-100.00,North,0,4.0,11.0,86,0.00,,,0.00,0.000000,,2013-04-10 03:32:00,
2013-04-09 21:43:00,17.0,14.0,-100.00,North,0,4.0,11.0,86,0.00,,,0.00,0.000000,,2013-04-10 03:43:00,
2013-04-09 22:13:00,16.0,12.0,-100.00,NE,38,2.0,9.0,83,0.00,,,0.00,0.000000,,2013-04-10 04:13:00,
2013-04-09 22:22:00,16.0,12.0,-100.00,NE,38,2.0,9.0,83,0.00,,,0.00,0.000000,,2013-04-10 04:22:00,
2013-04-09 22:33:00,16.0,12.0,-100.00,NE,38,2.0,9.0,83,0.00,,,0.00,0.000000,,2013-04-10 04:33:00,
2013-04-09 22:42:00,16.0,12.0,-100.00,NE,38,2.0,9.0,83,0.00,,,0.00,0.000000,,2013-04-10 04:42:00,
2013-04-09 23:13:00,16.0,12.0,-100.00,NNE,24,4.0,8.0,83,0.00,,,0.00,0.000000,,2013-04-10 05:13:00,
2013-04-09 23:22:00,16.0,12.0,-100.00,NNE,24,4.0,8.0,83,0.00,,,0.00,0.000000,,2013-04-10 05:22:00,
2013-04-09 23:32:00,16.0,12.0,-100.00,NNE,24,4.0,8.0,83,0.00,,,0.00,0.000000,,2013-04-10 05:32:00,
2013-04-09 23:42:00,16.0,12.0,-100.00,NNE,24,4.0,8.0,83,0.00,,,0.00,0.000000,,2013-04-10 05:42:00,